Loyalsock, Pennsylvania
Current Conditions -  °F | °C
As of 6:54 PM on Monday 22 Dec 2014 (Local Time) from KIPT Reporting Station
Light Rain Light Rain  
Wind Chill: 34°   Ceiling: 3500
Heat Index: 34°   Visibility: 10mi
Dew Point: 27°   Wind: 0mph
Humidity: 75%   Direction: NA
Pressure: 30.18"   Gusts: NA
Location:  41.246°N, 77.0167°W
Report Text: KIPT 222354Z 00000KT 10SM -RA OVC035 01/M03 A3018 RMK AO2 RAB24 SLP226 P0000 60000 T00111028 10022 20011 55000
Loading
Personal Weather Stations






























Interactive Weather Map New forecast layout! Learn more

10-Day Weather Forecast

Advertisements
Track Severe Weather on mobile